Etusivu
METAR-TAF:

METAR-TAF

Lentoasemat :

Midland, Texas, Yhdysvallat

Leveyspiiri: 31-56-52N, Pituuspiiri: 102-12-31W, korkeus merenpinnasta: 875 m

Tämänhetkinen sää

Tämä raportti tehtiin 15 minuuttia sitten, kello 02.53 UTC
Tuuli 6 kn pohjoisesta
Lämpötila 11°C
Kosteus 54%
Ilmanpaine 1014 hPa
Näkyvyys: 16.1 km
selkeää

METAR: KMAF 190253Z 01006KT 10SM CLR 11/02 A2995 RMK AO2 SLP121 T01060022 53015

Aika: 21:08 (03:08 UTC)

Sääennuste

Tämä raportti tehtiin 3 tuntia ja 46 minuuttia sitten, kello 23.22 UTC
Ennuste voimassa 19. päivästä klo 00 UTC - 19. päivään klo 24 UTC
Tuuli 8 kn lännestä/lounaasta
Näkyvyys: 10 km
selkeää
From 19. päivästä klo 0300 UTC
Tuuli 5 kn eri suunnista
Näkyvyys: 10 km
Muutamia pilviä 25000 ft:n korkeudessa
From 19. päivästä klo 1700 UTC
Tuuli 11 kn etelästä
Näkyvyys: 10 km
Hajanaisia pilviä 25000 ft:n korkeudessa

TAF: KMAF 182322Z 1900/1924 25008KT P6SM SKC FM190300 VRB05KT P6SM FEW250 FM191700 18011KT P6SM SCT250

Säähavainnot ja -ennusteet yli 4000 lentoasemalta (METAR- ja TAF-raportit).

Käytössä olevat sääasemat on merkitty karttaan keltaisilla ja punaisilla pisteillä.

Aseta hiiri pisteen päälle nähdäksesi sääaseman nimen.

Klikkaa sitten nähdäksesi säähavainnot ja -ennusteet.

Kartan vaihtaminen: klikkaa mustalla rastilla varustettuja vihreitä pisteitä, niin voit zoomata sisään; viivalla varustettua vihreää pistettä, niin voit zoomata ulos tai vihreitä nuolia, niin pääset viereisille kartoille.


METAR-TAF: